KBKT/BKT METAR and TAF weather

Enter ICAO airport designator
Station Type Date Time Source
KBKT METAR 2019/05/26 23:35 UTC NOAA

KBKT 262335Z AUTO 24004KT 10SM CLR 30/20 A2996 RMK AO1 T03000200


Station Type Date Time Source
KBKT Decoded METAR 2019/05/26 23:35 UTC NOAA

Ft. Pickett / Blackstone, VA, United States (KBKT) 37-05N 077-57W
May 26, 2019 - 07:35 PM EDT / 2019.05.26 2335 UTC
Wind: from the WSW (240 degrees) at 5 MPH (4 KT):0
Visibility: 10 mile(s):0
Sky conditions: clear
Temperature: 86.0 F (30.0 C)
Dew Point: 68.0 F (20.0 C)
Relative Humidity: 55%
Pressure (altimeter): 29.96 in. Hg (1014 hPa)
ob: KBKT 262335Z AUTO 24004KT 10SM CLR 30/20 A2996 RMK AO1 T03000200
cycle: 23

Station Type Date Time Source
KBKT TAF UTC NOAA

Error!

Example: see airport list